sensor_id;sensor_type;location;lat;lon;timestamp;P1;durP1;ratioP1;P2;durP2;ratioP2
9518;SDS011;4797;50.220;8.782;2022-08-19T00:00:03;109.47;;;69.70;;
9518;SDS011;4797;50.220;8.782;2022-08-19T00:02:31;109.43;;;67.37;;
9518;SDS011;4797;50.220;8.782;2022-08-19T00:05:00;100.77;;;63.63;;
9518;SDS011;4797;50.220;8.782;2022-08-19T00:07:29;113.37;;;70.87;;
9518;SDS011;4797;50.220;8.782;2022-08-19T00:09:57;107.77;;;68.40;;
9518;SDS011;4797;50.220;8.782;2022-08-19T00:12:26;109.00;;;68.03;;
9518;SDS011;4797;50.220;8.782;2022-08-19T00:14:54;107.60;;;68.00;;
9518;SDS011;4797;50.220;8.782;2022-08-19T00:17:23;109.50;;;69.23;;
9518;SDS011;4797;50.220;8.782;2022-08-19T00:19:51;108.00;;;66.67;;
9518;SDS011;4797;50.220;8.782;2022-08-19T00:22:19;111.13;;;68.73;;
9518;SDS011;4797;50.220;8.782;2022-08-19T00:24:49;109.37;;;68.27;;
9518;SDS011;4797;50.220;8.782;2022-08-19T00:27:17;111.77;;;67.47;;
9518;SDS011;4797;50.220;8.782;2022-08-19T00:29:51;107.40;;;67.10;;
9518;SDS011;4797;50.220;8.782;2022-08-19T00:32:20;109.77;;;66.87;;
9518;SDS011;4797;50.220;8.782;2022-08-19T00:34:49;108.47;;;68.57;;
9518;SDS011;4797;50.220;8.782;2022-08-19T00:37:19;116.47;;;69.47;;
9518;SDS011;4797;50.220;8.782;2022-08-19T00:39:50;108.13;;;65.53;;
9518;SDS011;4797;50.220;8.782;2022-08-19T00:42:19;108.00;;;67.07;;
9518;SDS011;4797;50.220;8.782;2022-08-19T00:44:47;108.53;;;66.77;;
9518;SDS011;4797;50.220;8.782;2022-08-19T00:47:16;113.77;;;68.87;;
9518;SDS011;4797;50.220;8.782;2022-08-19T00:49:47;111.23;;;68.87;;
9518;SDS011;4797;50.220;8.782;2022-08-19T00:52:18;108.53;;;68.07;;
9518;SDS011;4797;50.220;8.782;2022-08-19T00:54:47;110.20;;;67.63;;
9518;SDS011;4797;50.220;8.782;2022-08-19T00:57:20;110.53;;;69.47;;
9518;SDS011;4797;50.220;8.782;2022-08-19T00:59:51;108.07;;;66.33;;
9518;SDS011;4797;50.220;8.782;2022-08-19T01:02:28;108.53;;;67.83;;
9518;SDS011;4797;50.220;8.782;2022-08-19T01:04:59;109.00;;;67.70;;
9518;SDS011;4797;50.220;8.782;2022-08-19T01:07:28;104.23;;;65.40;;
9518;SDS011;4797;50.220;8.782;2022-08-19T01:10:03;106.03;;;67.57;;
9518;SDS011;4797;50.220;8.782;2022-08-19T01:12:34;108.43;;;68.07;;
9518;SDS011;4797;50.220;8.782;2022-08-19T01:15:02;112.77;;;68.53;;
9518;SDS011;4797;50.220;8.782;2022-08-19T01:17:31;106.97;;;67.17;;
9518;SDS011;4797;50.220;8.782;2022-08-19T01:19:59;108.37;;;68.97;;
9518;SDS011;4797;50.220;8.782;2022-08-19T01:22:29;112.63;;;70.13;;
9518;SDS011;4797;50.220;8.782;2022-08-19T01:24:59;108.33;;;67.83;;
9518;SDS011;4797;50.220;8.782;2022-08-19T01:27:36;111.13;;;67.47;;
9518;SDS011;4797;50.220;8.782;2022-08-19T01:30:09;99.47;;;62.70;;
9518;SDS011;4797;50.220;8.782;2022-08-19T01:32:38;103.60;;;66.27;;
9518;SDS011;4797;50.220;8.782;2022-08-19T01:35:12;106.33;;;67.17;;
9518;SDS011;4797;50.220;8.782;2022-08-19T01:37:46;97.87;;;63.63;;
9518;SDS011;4797;50.220;8.782;2022-08-19T01:40:16;105.37;;;67.27;;
9518;SDS011;4797;50.220;8.782;2022-08-19T01:42:45;104.17;;;64.17;;
9518;SDS011;4797;50.220;8.782;2022-08-19T01:45:13;97.07;;;62.40;;
9518;SDS011;4797;50.220;8.782;2022-08-19T01:47:42;104.60;;;64.23;;
9518;SDS011;4797;50.220;8.782;2022-08-19T01:50:26;100.63;;;64.13;;
9518;SDS011;4797;50.220;8.782;2022-08-19T01:52:56;101.73;;;65.30;;
9518;SDS011;4797;50.220;8.782;2022-08-19T01:55:32;105.60;;;66.70;;
9518;SDS011;4797;50.220;8.782;2022-08-19T01:58:06;102.83;;;65.43;;
9518;SDS011;4797;50.220;8.782;2022-08-19T02:00:35;96.13;;;60.40;;
9518;SDS011;4797;50.220;8.782;2022-08-19T02:03:03;105.20;;;65.90;;
9518;SDS011;4797;50.220;8.782;2022-08-19T02:05:32;102.47;;;61.50;;
9518;SDS011;4797;50.220;8.782;2022-08-19T02:08:03;94.50;;;59.23;;
9518;SDS011;4797;50.220;8.782;2022-08-19T02:10:31;107.27;;;66.70;;
9518;SDS011;4797;50.220;8.782;2022-08-19T02:13:00;103.70;;;64.47;;
9518;SDS011;4797;50.220;8.782;2022-08-19T02:15:28;97.37;;;61.93;;
9518;SDS011;4797;50.220;8.782;2022-08-19T02:17:56;102.33;;;64.57;;
9518;SDS011;4797;50.220;8.782;2022-08-19T02:20:25;104.27;;;65.10;;
9518;SDS011;4797;50.220;8.782;2022-08-19T02:22:53;102.03;;;63.73;;
9518;SDS011;4797;50.220;8.782;2022-08-19T02:25:23;95.97;;;61.97;;
9518;SDS011;4797;50.220;8.782;2022-08-19T02:27:51;104.50;;;65.63;;
9518;SDS011;4797;50.220;8.782;2022-08-19T02:30:20;99.40;;;64.00;;
9518;SDS011;4797;50.220;8.782;2022-08-19T02:32:48;103.47;;;64.83;;
9518;SDS011;4797;50.220;8.782;2022-08-19T02:35:17;106.07;;;67.70;;
9518;SDS011;4797;50.220;8.782;2022-08-19T02:37:45;104.07;;;64.20;;
9518;SDS011;4797;50.220;8.782;2022-08-19T02:40:32;103.30;;;66.73;;
9518;SDS011;4797;50.220;8.782;2022-08-19T02:43:01;101.60;;;64.70;;
9518;SDS011;4797;50.220;8.782;2022-08-19T02:45:31;108.83;;;68.13;;
9518;SDS011;4797;50.220;8.782;2022-08-19T02:48:00;95.07;;;61.07;;
9518;SDS011;4797;50.220;8.782;2022-08-19T02:50:37;103.33;;;66.57;;
9518;SDS011;4797;50.220;8.782;2022-08-19T02:53:18;105.63;;;65.40;;
9518;SDS011;4797;50.220;8.782;2022-08-19T02:55:49;97.97;;;61.73;;
9518;SDS011;4797;50.220;8.782;2022-08-19T02:58:19;104.17;;;66.70;;
9518;SDS011;4797;50.220;8.782;2022-08-19T03:00:48;109.23;;;64.93;;
9518;SDS011;4797;50.220;8.782;2022-08-19T03:03:16;96.70;;;61.80;;
9518;SDS011;4797;50.220;8.782;2022-08-19T03:05:45;100.37;;;62.67;;
9518;SDS011;4797;50.220;8.782;2022-08-19T03:08:22;96.27;;;61.70;;
9518;SDS011;4797;50.220;8.782;2022-08-19T03:10:52;101.43;;;61.37;;
9518;SDS011;4797;50.220;8.782;2022-08-19T03:13:21;101.83;;;64.13;;
9518;SDS011;4797;50.220;8.782;2022-08-19T03:15:50;102.77;;;65.67;;
9518;SDS011;4797;50.220;8.782;2022-08-19T03:18:18;99.50;;;62.00;;
9518;SDS011;4797;50.220;8.782;2022-08-19T03:20:49;97.10;;;59.97;;
9518;SDS011;4797;50.220;8.782;2022-08-19T03:23:18;105.23;;;66.80;;
9518;SDS011;4797;50.220;8.782;2022-08-19T03:25:47;100.80;;;64.20;;
9518;SDS011;4797;50.220;8.782;2022-08-19T03:28:37;107.00;;;65.90;;
9518;SDS011;4797;50.220;8.782;2022-08-19T03:31:07;104.90;;;68.07;;
9518;SDS011;4797;50.220;8.782;2022-08-19T03:33:56;99.00;;;62.17;;
9518;SDS011;4797;50.220;8.782;2022-08-19T03:36:25;97.90;;;63.20;;
9518;SDS011;4797;50.220;8.782;2022-08-19T03:38:56;101.83;;;63.77;;
9518;SDS011;4797;50.220;8.782;2022-08-19T03:41:25;109.63;;;70.07;;
9518;SDS011;4797;50.220;8.782;2022-08-19T03:44:12;96.40;;;60.33;;
9518;SDS011;4797;50.220;8.782;2022-08-19T03:46:43;104.73;;;65.33;;
9518;SDS011;4797;50.220;8.782;2022-08-19T03:49:12;102.27;;;66.67;;
9518;SDS011;4797;50.220;8.782;2022-08-19T03:51:43;99.60;;;62.90;;
9518;SDS011;4797;50.220;8.782;2022-08-19T03:54:12;98.90;;;62.37;;
9518;SDS011;4797;50.220;8.782;2022-08-19T03:56:42;95.33;;;61.07;;
9518;SDS011;4797;50.220;8.782;2022-08-19T03:59:15;93.40;;;59.50;;
9518;SDS011;4797;50.220;8.782;2022-08-19T04:01:45;95.20;;;60.50;;
9518;SDS011;4797;50.220;8.782;2022-08-19T04:04:13;96.47;;;61.37;;
9518;SDS011;4797;50.220;8.782;2022-08-19T04:06:45;104.70;;;65.77;;
9518;SDS011;4797;50.220;8.782;2022-08-19T04:09:13;101.17;;;61.77;;
9518;SDS011;4797;50.220;8.782;2022-08-19T04:11:43;100.27;;;63.07;;
9518;SDS011;4797;50.220;8.782;2022-08-19T04:14:12;95.97;;;61.30;;
9518;SDS011;4797;50.220;8.782;2022-08-19T04:16:41;95.80;;;60.53;;
9518;SDS011;4797;50.220;8.782;2022-08-19T04:19:11;96.70;;;60.00;;
9518;SDS011;4797;50.220;8.782;2022-08-19T04:21:42;99.70;;;65.57;;
9518;SDS011;4797;50.220;8.782;2022-08-19T04:24:11;101.47;;;65.13;;
9518;SDS011;4797;50.220;8.782;2022-08-19T04:26:40;106.83;;;66.43;;
9518;SDS011;4797;50.220;8.782;2022-08-19T04:29:10;99.67;;;63.33;;
9518;SDS011;4797;50.220;8.782;2022-08-19T04:31:39;106.17;;;69.70;;
9518;SDS011;4797;50.220;8.782;2022-08-19T04:34:08;96.27;;;61.87;;
9518;SDS011;4797;50.220;8.782;2022-08-19T04:36:40;102.70;;;64.23;;
9518;SDS011;4797;50.220;8.782;2022-08-19T04:39:12;106.77;;;65.47;;
9518;SDS011;4797;50.220;8.782;2022-08-19T04:41:40;108.43;;;68.67;;
9518;SDS011;4797;50.220;8.782;2022-08-19T04:44:26;102.30;;;62.67;;
9518;SDS011;4797;50.220;8.782;2022-08-19T04:46:58;94.83;;;61.67;;
9518;SDS011;4797;50.220;8.782;2022-08-19T04:49:26;102.20;;;63.47;;
9518;SDS011;4797;50.220;8.782;2022-08-19T04:51:57;102.40;;;65.37;;
9518;SDS011;4797;50.220;8.782;2022-08-19T04:54:25;102.43;;;66.27;;
9518;SDS011;4797;50.220;8.782;2022-08-19T04:57:04;96.13;;;62.37;;
9518;SDS011;4797;50.220;8.782;2022-08-19T04:59:33;96.10;;;62.17;;
9518;SDS011;4797;50.220;8.782;2022-08-19T05:02:02;106.63;;;66.30;;
9518;SDS011;4797;50.220;8.782;2022-08-19T05:04:31;97.13;;;63.00;;
9518;SDS011;4797;50.220;8.782;2022-08-19T05:07:01;98.63;;;61.83;;
9518;SDS011;4797;50.220;8.782;2022-08-19T05:09:29;99.37;;;63.20;;
9518;SDS011;4797;50.220;8.782;2022-08-19T05:12:17;95.47;;;61.20;;
9518;SDS011;4797;50.220;8.782;2022-08-19T05:14:46;101.47;;;65.33;;
9518;SDS011;4797;50.220;8.782;2022-08-19T05:17:15;97.50;;;62.90;;
9518;SDS011;4797;50.220;8.782;2022-08-19T05:20:04;106.03;;;65.00;;
9518;SDS011;4797;50.220;8.782;2022-08-19T05:22:51;99.53;;;63.57;;
9518;SDS011;4797;50.220;8.782;2022-08-19T05:25:20;98.53;;;61.97;;
9518;SDS011;4797;50.220;8.782;2022-08-19T05:27:48;95.93;;;61.97;;
9518;SDS011;4797;50.220;8.782;2022-08-19T05:30:17;96.07;;;62.67;;
9518;SDS011;4797;50.220;8.782;2022-08-19T05:33:05;105.57;;;64.77;;
9518;SDS011;4797;50.220;8.782;2022-08-19T05:35:35;109.33;;;67.70;;
9518;SDS011;4797;50.220;8.782;2022-08-19T05:38:04;102.87;;;68.07;;
9518;SDS011;4797;50.220;8.782;2022-08-19T05:40:33;106.10;;;63.47;;
9518;SDS011;4797;50.220;8.782;2022-08-19T05:43:03;101.90;;;63.13;;
9518;SDS011;4797;50.220;8.782;2022-08-19T05:45:32;104.20;;;65.53;;
9518;SDS011;4797;50.220;8.782;2022-08-19T05:48:01;103.33;;;65.67;;
9518;SDS011;4797;50.220;8.782;2022-08-19T05:50:29;98.80;;;64.37;;
9518;SDS011;4797;50.220;8.782;2022-08-19T05:52:57;99.47;;;63.50;;
9518;SDS011;4797;50.220;8.782;2022-08-19T05:55:27;99.77;;;62.23;;
9518;SDS011;4797;50.220;8.782;2022-08-19T05:57:55;97.47;;;64.00;;
9518;SDS011;4797;50.220;8.782;2022-08-19T06:00:23;95.47;;;62.33;;
9518;SDS011;4797;50.220;8.782;2022-08-19T06:02:52;90.57;;;59.93;;
9518;SDS011;4797;50.220;8.782;2022-08-19T06:05:22;96.87;;;62.77;;
9518;SDS011;4797;50.220;8.782;2022-08-19T06:07:50;93.80;;;61.47;;
9518;SDS011;4797;50.220;8.782;2022-08-19T06:10:19;97.47;;;62.53;;
9518;SDS011;4797;50.220;8.782;2022-08-19T06:12:49;96.67;;;63.27;;
9518;SDS011;4797;50.220;8.782;2022-08-19T06:15:17;92.23;;;60.57;;
9518;SDS011;4797;50.220;8.782;2022-08-19T06:17:46;92.77;;;59.27;;
9518;SDS011;4797;50.220;8.782;2022-08-19T06:20:14;98.07;;;61.60;;
9518;SDS011;4797;50.220;8.782;2022-08-19T06:22:59;92.70;;;59.63;;
9518;SDS011;4797;50.220;8.782;2022-08-19T06:25:27;98.10;;;61.50;;
9518;SDS011;4797;50.220;8.782;2022-08-19T06:27:57;93.37;;;60.83;;
9518;SDS011;4797;50.220;8.782;2022-08-19T06:30:41;98.90;;;64.47;;
9518;SDS011;4797;50.220;8.782;2022-08-19T06:33:09;91.40;;;60.00;;
9518;SDS011;4797;50.220;8.782;2022-08-19T06:35:38;94.20;;;59.73;;
9518;SDS011;4797;50.220;8.782;2022-08-19T06:38:07;93.30;;;60.40;;
9518;SDS011;4797;50.220;8.782;2022-08-19T06:40:35;91.30;;;59.37;;
9518;SDS011;4797;50.220;8.782;2022-08-19T06:43:06;91.17;;;58.77;;
9518;SDS011;4797;50.220;8.782;2022-08-19T06:45:36;93.40;;;59.07;;
9518;SDS011;4797;50.220;8.782;2022-08-19T06:48:05;93.03;;;60.07;;
9518;SDS011;4797;50.220;8.782;2022-08-19T06:50:36;95.03;;;61.37;;
9518;SDS011;4797;50.220;8.782;2022-08-19T06:53:06;92.40;;;59.07;;
9518;SDS011;4797;50.220;8.782;2022-08-19T06:55:34;92.30;;;60.50;;
9518;SDS011;4797;50.220;8.782;2022-08-19T06:58:03;100.33;;;60.50;;
9518;SDS011;4797;50.220;8.782;2022-08-19T07:00:33;94.17;;;59.57;;
9518;SDS011;4797;50.220;8.782;2022-08-19T07:03:02;95.00;;;59.17;;
9518;SDS011;4797;50.220;8.782;2022-08-19T07:05:37;94.13;;;59.77;;
9518;SDS011;4797;50.220;8.782;2022-08-19T07:08:11;95.70;;;60.73;;
9518;SDS011;4797;50.220;8.782;2022-08-19T07:10:42;94.27;;;59.80;;
9518;SDS011;4797;50.220;8.782;2022-08-19T07:13:10;92.10;;;59.90;;
9518;SDS011;4797;50.220;8.782;2022-08-19T07:15:40;96.60;;;59.67;;
9518;SDS011;4797;50.220;8.782;2022-08-19T07:18:08;93.47;;;60.50;;
9518;SDS011;4797;50.220;8.782;2022-08-19T07:20:37;96.37;;;62.40;;
9518;SDS011;4797;50.220;8.782;2022-08-19T07:23:07;103.93;;;66.43;;
9518;SDS011;4797;50.220;8.782;2022-08-19T07:25:42;98.57;;;63.10;;
9518;SDS011;4797;50.220;8.782;2022-08-19T07:28:18;94.77;;;59.53;;
9518;SDS011;4797;50.220;8.782;2022-08-19T07:30:51;95.43;;;61.67;;
9518;SDS011;4797;50.220;8.782;2022-08-19T07:33:20;93.90;;;60.63;;
9518;SDS011;4797;50.220;8.782;2022-08-19T07:35:48;101.13;;;67.57;;
9518;SDS011;4797;50.220;8.782;2022-08-19T07:38:17;98.77;;;61.10;;
9518;SDS011;4797;50.220;8.782;2022-08-19T07:40:45;94.57;;;61.57;;
9518;SDS011;4797;50.220;8.782;2022-08-19T07:43:16;98.80;;;63.67;;
9518;SDS011;4797;50.220;8.782;2022-08-19T07:45:48;95.37;;;61.80;;
9518;SDS011;4797;50.220;8.782;2022-08-19T07:48:18;99.33;;;65.30;;
9518;SDS011;4797;50.220;8.782;2022-08-19T07:50:51;102.20;;;66.30;;
9518;SDS011;4797;50.220;8.782;2022-08-19T07:53:20;98.23;;;61.07;;
9518;SDS011;4797;50.220;8.782;2022-08-19T07:55:48;102.27;;;63.07;;
9518;SDS011;4797;50.220;8.782;2022-08-19T07:58:18;98.20;;;62.17;;
9518;SDS011;4797;50.220;8.782;2022-08-19T08:00:48;97.60;;;63.73;;
9518;SDS011;4797;50.220;8.782;2022-08-19T08:03:19;95.50;;;60.37;;
9518;SDS011;4797;50.220;8.782;2022-08-19T08:06:08;93.70;;;60.07;;
9518;SDS011;4797;50.220;8.782;2022-08-19T08:08:55;100.27;;;64.87;;
9518;SDS011;4797;50.220;8.782;2022-08-19T08:11:44;93.50;;;59.00;;
9518;SDS011;4797;50.220;8.782;2022-08-19T08:14:15;95.13;;;61.87;;
9518;SDS011;4797;50.220;8.782;2022-08-19T08:16:55;97.30;;;61.57;;
9518;SDS011;4797;50.220;8.782;2022-08-19T08:19:26;98.83;;;62.20;;
9518;SDS011;4797;50.220;8.782;2022-08-19T08:21:55;100.47;;;64.33;;
9518;SDS011;4797;50.220;8.782;2022-08-19T08:24:24;95.00;;;60.33;;
9518;SDS011;4797;50.220;8.782;2022-08-19T08:26:54;92.90;;;58.97;;
9518;SDS011;4797;50.220;8.782;2022-08-19T08:29:25;96.00;;;61.90;;
9518;SDS011;4797;50.220;8.782;2022-08-19T08:32:00;100.47;;;64.23;;
9518;SDS011;4797;50.220;8.782;2022-08-19T08:34:40;96.50;;;61.97;;
9518;SDS011;4797;50.220;8.782;2022-08-19T08:37:09;100.83;;;62.43;;
9518;SDS011;4797;50.220;8.782;2022-08-19T08:39:41;98.43;;;62.90;;
9518;SDS011;4797;50.220;8.782;2022-08-19T08:42:11;99.23;;;62.27;;
9518;SDS011;4797;50.220;8.782;2022-08-19T08:44:48;97.30;;;61.07;;
9518;SDS011;4797;50.220;8.782;2022-08-19T08:47:19;98.27;;;64.07;;
9518;SDS011;4797;50.220;8.782;2022-08-19T08:49:50;94.93;;;60.57;;
9518;SDS011;4797;50.220;8.782;2022-08-19T08:52:20;103.60;;;62.10;;
9518;SDS011;4797;50.220;8.782;2022-08-19T08:54:57;97.27;;;61.73;;
9518;SDS011;4797;50.220;8.782;2022-08-19T08:57:27;95.63;;;60.50;;
9518;SDS011;4797;50.220;8.782;2022-08-19T09:00:07;95.07;;;60.10;;
9518;SDS011;4797;50.220;8.782;2022-08-19T09:02:41;94.60;;;59.43;;
9518;SDS011;4797;50.220;8.782;2022-08-19T09:05:10;95.30;;;60.20;;
9518;SDS011;4797;50.220;8.782;2022-08-19T09:07:43;93.90;;;59.83;;
9518;SDS011;4797;50.220;8.782;2022-08-19T09:10:17;95.87;;;59.70;;
9518;SDS011;4797;50.220;8.782;2022-08-19T09:12:53;97.17;;;59.93;;
9518;SDS011;4797;50.220;8.782;2022-08-19T09:15:28;94.10;;;59.63;;
9518;SDS011;4797;50.220;8.782;2022-08-19T09:18:02;94.63;;;59.53;;
9518;SDS011;4797;50.220;8.782;2022-08-19T09:20:33;93.27;;;59.23;;
9518;SDS011;4797;50.220;8.782;2022-08-19T09:23:06;95.87;;;61.20;;
9518;SDS011;4797;50.220;8.782;2022-08-19T09:25:35;100.50;;;62.57;;
9518;SDS011;4797;50.220;8.782;2022-08-19T09:28:06;97.00;;;60.47;;
9518;SDS011;4797;50.220;8.782;2022-08-19T09:30:48;95.00;;;59.67;;
9518;SDS011;4797;50.220;8.782;2022-08-19T09:33:18;100.10;;;63.20;;
9518;SDS011;4797;50.220;8.782;2022-08-19T09:35:48;99.40;;;62.50;;
9518;SDS011;4797;50.220;8.782;2022-08-19T09:38:19;96.57;;;60.20;;
9518;SDS011;4797;50.220;8.782;2022-08-19T09:40:47;97.03;;;62.27;;
9518;SDS011;4797;50.220;8.782;2022-08-19T09:43:16;110.37;;;61.00;;
9518;SDS011;4797;50.220;8.782;2022-08-19T09:45:59;99.33;;;62.67;;
9518;SDS011;4797;50.220;8.782;2022-08-19T09:48:27;105.10;;;63.40;;
9518;SDS011;4797;50.220;8.782;2022-08-19T09:51:02;97.13;;;60.87;;
9518;SDS011;4797;50.220;8.782;2022-08-19T09:53:31;96.03;;;59.83;;
9518;SDS011;4797;50.220;8.782;2022-08-19T09:55:59;96.30;;;61.80;;
9518;SDS011;4797;50.220;8.782;2022-08-19T09:58:29;96.43;;;59.57;;
9518;SDS011;4797;50.220;8.782;2022-08-19T10:00:58;96.40;;;60.97;;
9518;SDS011;4797;50.220;8.782;2022-08-19T10:03:27;98.10;;;61.10;;
9518;SDS011;4797;50.220;8.782;2022-08-19T10:05:56;96.03;;;60.30;;
9518;SDS011;4797;50.220;8.782;2022-08-19T10:08:28;96.70;;;60.80;;
9518;SDS011;4797;50.220;8.782;2022-08-19T10:10:57;100.47;;;61.67;;
9518;SDS011;4797;50.220;8.782;2022-08-19T10:13:45;96.00;;;60.07;;
9518;SDS011;4797;50.220;8.782;2022-08-19T10:16:14;98.20;;;61.43;;
9518;SDS011;4797;50.220;8.782;2022-08-19T10:18:44;98.57;;;61.90;;
9518;SDS011;4797;50.220;8.782;2022-08-19T10:21:15;98.70;;;61.10;;
9518;SDS011;4797;50.220;8.782;2022-08-19T10:23:46;97.43;;;61.57;;
9518;SDS011;4797;50.220;8.782;2022-08-19T10:26:16;97.27;;;60.97;;
9518;SDS011;4797;50.220;8.782;2022-08-19T10:28:45;96.97;;;61.27;;
9518;SDS011;4797;50.220;8.782;2022-08-19T10:31:14;99.67;;;63.17;;
9518;SDS011;4797;50.220;8.782;2022-08-19T10:33:44;98.10;;;61.13;;
9518;SDS011;4797;50.220;8.782;2022-08-19T10:36:20;96.73;;;61.07;;
9518;SDS011;4797;50.220;8.782;2022-08-19T10:38:51;99.27;;;62.07;;
9518;SDS011;4797;50.220;8.782;2022-08-19T10:41:24;99.40;;;62.70;;
9518;SDS011;4797;50.220;8.782;2022-08-19T10:43:53;99.10;;;62.27;;
9518;SDS011;4797;50.220;8.782;2022-08-19T10:46:29;99.23;;;62.47;;
9518;SDS011;4797;50.220;8.782;2022-08-19T10:48:59;102.47;;;62.07;;
9518;SDS011;4797;50.220;8.782;2022-08-19T10:51:28;95.17;;;60.10;;
9518;SDS011;4797;50.220;8.782;2022-08-19T10:54:16;98.37;;;62.50;;
9518;SDS011;4797;50.220;8.782;2022-08-19T10:56:59;96.83;;;61.27;;
9518;SDS011;4797;50.220;8.782;2022-08-19T10:59:27;98.67;;;62.40;;
9518;SDS011;4797;50.220;8.782;2022-08-19T11:02:01;96.37;;;60.10;;
9518;SDS011;4797;50.220;8.782;2022-08-19T11:04:30;95.87;;;59.77;;
9518;SDS011;4797;50.220;8.782;2022-08-19T11:07:01;98.40;;;61.47;;
9518;SDS011;4797;50.220;8.782;2022-08-19T11:09:30;97.67;;;61.63;;
9518;SDS011;4797;50.220;8.782;2022-08-19T11:12:00;96.40;;;59.77;;
9518;SDS011;4797;50.220;8.782;2022-08-19T11:14:30;98.47;;;59.87;;
9518;SDS011;4797;50.220;8.782;2022-08-19T11:17:01;97.10;;;60.47;;
9518;SDS011;4797;50.220;8.782;2022-08-19T11:19:30;98.90;;;62.00;;
9518;SDS011;4797;50.220;8.782;2022-08-19T11:21:58;100.43;;;62.63;;
9518;SDS011;4797;50.220;8.782;2022-08-19T11:24:30;101.23;;;62.60;;
9518;SDS011;4797;50.220;8.782;2022-08-19T11:27:01;98.73;;;60.70;;
9518;SDS011;4797;50.220;8.782;2022-08-19T11:29:30;97.57;;;60.47;;
9518;SDS011;4797;50.220;8.782;2022-08-19T11:32:02;98.90;;;61.63;;
9518;SDS011;4797;50.220;8.782;2022-08-19T11:34:31;98.80;;;59.97;;
9518;SDS011;4797;50.220;8.782;2022-08-19T11:37:02;99.57;;;61.50;;
9518;SDS011;4797;50.220;8.782;2022-08-19T11:39:33;98.57;;;61.87;;
9518;SDS011;4797;50.220;8.782;2022-08-19T11:42:05;99.87;;;63.43;;
9518;SDS011;4797;50.220;8.782;2022-08-19T11:44:48;98.93;;;62.53;;
9518;SDS011;4797;50.220;8.782;2022-08-19T11:47:18;100.80;;;62.10;;
9518;SDS011;4797;50.220;8.782;2022-08-19T11:49:50;99.40;;;62.23;;
9518;SDS011;4797;50.220;8.782;2022-08-19T11:52:19;99.10;;;61.23;;
9518;SDS011;4797;50.220;8.782;2022-08-19T11:54:49;100.30;;;62.97;;
9518;SDS011;4797;50.220;8.782;2022-08-19T11:57:18;109.80;;;69.57;;
9518;SDS011;4797;50.220;8.782;2022-08-19T11:59:49;99.57;;;62.40;;
9518;SDS011;4797;50.220;8.782;2022-08-19T12:02:17;102.27;;;64.63;;
9518;SDS011;4797;50.220;8.782;2022-08-19T12:04:46;104.57;;;66.07;;
9518;SDS011;4797;50.220;8.782;2022-08-19T12:07:14;106.27;;;66.77;;
9518;SDS011;4797;50.220;8.782;2022-08-19T12:09:42;102.40;;;64.67;;
9518;SDS011;4797;50.220;8.782;2022-08-19T12:12:15;102.77;;;64.17;;
9518;SDS011;4797;50.220;8.782;2022-08-19T12:14:43;107.80;;;67.47;;
9518;SDS011;4797;50.220;8.782;2022-08-19T12:17:12;104.93;;;67.23;;
9518;SDS011;4797;50.220;8.782;2022-08-19T12:19:41;100.57;;;63.47;;
9518;SDS011;4797;50.220;8.782;2022-08-19T12:22:09;101.77;;;64.07;;
9518;SDS011;4797;50.220;8.782;2022-08-19T12:24:38;102.70;;;65.13;;
9518;SDS011;4797;50.220;8.782;2022-08-19T12:27:06;103.90;;;65.27;;
9518;SDS011;4797;50.220;8.782;2022-08-19T12:29:39;104.30;;;65.20;;
9518;SDS011;4797;50.220;8.782;2022-08-19T12:32:08;102.70;;;65.27;;
9518;SDS011;4797;50.220;8.782;2022-08-19T12:34:37;105.40;;;65.63;;
9518;SDS011;4797;50.220;8.782;2022-08-19T12:37:07;106.37;;;66.17;;
9518;SDS011;4797;50.220;8.782;2022-08-19T12:39:36;104.33;;;64.77;;
9518;SDS011;4797;50.220;8.782;2022-08-19T12:42:05;104.57;;;62.10;;
9518;SDS011;4797;50.220;8.782;2022-08-19T12:44:34;110.47;;;68.40;;
9518;SDS011;4797;50.220;8.782;2022-08-19T12:47:07;108.50;;;67.17;;
9518;SDS011;4797;50.220;8.782;2022-08-19T12:49:36;109.57;;;68.13;;
9518;SDS011;4797;50.220;8.782;2022-08-19T12:52:20;105.87;;;64.87;;
9518;SDS011;4797;50.220;8.782;2022-08-19T12:54:49;108.20;;;65.10;;
9518;SDS011;4797;50.220;8.782;2022-08-19T12:57:20;102.37;;;62.77;;
9518;SDS011;4797;50.220;8.782;2022-08-19T12:59:58;100.77;;;60.67;;
9518;SDS011;4797;50.220;8.782;2022-08-19T13:02:31;105.70;;;66.77;;
9518;SDS011;4797;50.220;8.782;2022-08-19T13:05:05;105.87;;;65.57;;
9518;SDS011;4797;50.220;8.782;2022-08-19T13:07:35;112.30;;;68.90;;
9518;SDS011;4797;50.220;8.782;2022-08-19T13:10:08;107.03;;;67.17;;
9518;SDS011;4797;50.220;8.782;2022-08-19T13:12:38;106.50;;;66.57;;
9518;SDS011;4797;50.220;8.782;2022-08-19T13:15:08;105.77;;;67.37;;
9518;SDS011;4797;50.220;8.782;2022-08-19T13:17:38;103.83;;;66.37;;
9518;SDS011;4797;50.220;8.782;2022-08-19T13:20:07;102.03;;;62.90;;
9518;SDS011;4797;50.220;8.782;2022-08-19T13:22:36;107.70;;;66.57;;
9518;SDS011;4797;50.220;8.782;2022-08-19T13:25:05;112.67;;;69.90;;
9518;SDS011;4797;50.220;8.782;2022-08-19T13:27:34;113.70;;;69.67;;
9518;SDS011;4797;50.220;8.782;2022-08-19T13:30:03;109.97;;;68.17;;
9518;SDS011;4797;50.220;8.782;2022-08-19T13:32:51;110.17;;;66.63;;
9518;SDS011;4797;50.220;8.782;2022-08-19T13:35:37;117.00;;;69.53;;
9518;SDS011;4797;50.220;8.782;2022-08-19T13:38:05;112.17;;;69.37;;
9518;SDS011;4797;50.220;8.782;2022-08-19T13:40:37;110.70;;;68.30;;
9518;SDS011;4797;50.220;8.782;2022-08-19T13:43:07;107.67;;;65.70;;
9518;SDS011;4797;50.220;8.782;2022-08-19T13:45:48;108.50;;;66.03;;
9518;SDS011;4797;50.220;8.782;2022-08-19T13:48:19;113.20;;;69.53;;
9518;SDS011;4797;50.220;8.782;2022-08-19T13:50:47;113.83;;;70.60;;
9518;SDS011;4797;50.220;8.782;2022-08-19T13:53:16;119.60;;;69.87;;
9518;SDS011;4797;50.220;8.782;2022-08-19T13:55:44;108.83;;;67.10;;
9518;SDS011;4797;50.220;8.782;2022-08-19T13:58:13;118.63;;;73.27;;
9518;SDS011;4797;50.220;8.782;2022-08-19T14:00:42;106.80;;;66.03;;
9518;SDS011;4797;50.220;8.782;2022-08-19T14:03:11;107.87;;;65.53;;
9518;SDS011;4797;50.220;8.782;2022-08-19T14:05:41;106.63;;;65.40;;
9518;SDS011;4797;50.220;8.782;2022-08-19T14:08:09;110.27;;;69.53;;
9518;SDS011;4797;50.220;8.782;2022-08-19T14:10:38;108.50;;;65.67;;
9518;SDS011;4797;50.220;8.782;2022-08-19T14:13:07;103.60;;;63.03;;
9518;SDS011;4797;50.220;8.782;2022-08-19T14:15:35;109.10;;;65.37;;
9518;SDS011;4797;50.220;8.782;2022-08-19T14:18:11;102.50;;;61.60;;
9518;SDS011;4797;50.220;8.782;2022-08-19T14:20:41;114.20;;;67.67;;
9518;SDS011;4797;50.220;8.782;2022-08-19T14:23:10;114.67;;;69.40;;
9518;SDS011;4797;50.220;8.782;2022-08-19T14:25:39;114.00;;;68.83;;
9518;SDS011;4797;50.220;8.782;2022-08-19T14:28:08;102.83;;;62.23;;
9518;SDS011;4797;50.220;8.782;2022-08-19T14:30:36;110.00;;;67.37;;
9518;SDS011;4797;50.220;8.782;2022-08-19T14:33:05;108.30;;;66.70;;
9518;SDS011;4797;50.220;8.782;2022-08-19T14:35:35;111.00;;;67.23;;
9518;SDS011;4797;50.220;8.782;2022-08-19T14:38:05;112.53;;;67.87;;
9518;SDS011;4797;50.220;8.782;2022-08-19T14:40:34;103.87;;;63.53;;
9518;SDS011;4797;50.220;8.782;2022-08-19T14:43:03;105.00;;;62.73;;
9518;SDS011;4797;50.220;8.782;2022-08-19T14:45:33;102.40;;;62.03;;
9518;SDS011;4797;50.220;8.782;2022-08-19T14:48:02;106.27;;;64.47;;
9518;SDS011;4797;50.220;8.782;2022-08-19T14:50:31;103.17;;;63.27;;
9518;SDS011;4797;50.220;8.782;2022-08-19T14:53:00;109.80;;;63.87;;
9518;SDS011;4797;50.220;8.782;2022-08-19T14:55:41;106.43;;;63.27;;
9518;SDS011;4797;50.220;8.782;2022-08-19T14:58:10;115.00;;;67.13;;
9518;SDS011;4797;50.220;8.782;2022-08-19T15:00:55;108.60;;;66.07;;
9518;SDS011;4797;50.220;8.782;2022-08-19T15:03:23;103.57;;;63.70;;